Terminal Aerodrome Forecast
Issued by NWS Burlington, VT

Home | Current Version | Previous Version | Text Only | Print | Product List | Glossary On
Versions: 1 2 3 4 5 6 7 8 9 10 11 12 13 14 15 16
761
FTUS41 KBTV 301134
TAFBTV
TAF
KBTV 301134Z 3012/3112 18014G26KT P6SM SCT015 OVC035
     FM301400 18015G25KT P6SM VCSH BKN035
     FM301800 18015G21KT 6SM -SHRA BR OVC040
     FM310100 17011KT P6SM VCSH BKN040
     FM310500 18010KT P6SM SCT020 BKN045=

USA.gov is the U.S. government's official web portal to all federal, state and local government web resources and services.